MDSTMDSD

Guest
Details From MDST - Santiago Cibao Intl
To MDSD - Las Americas Intl
Flight Number -
Tags generated
Created
Modified
Stats Distance 79 nm / 147 km
Max Altitude 5,000 ft / 1,524 m
Waypoints 3
Social Downloads 24
Likes 0
Share VATSIM

Download

Looking for another format? Having issues loading an existing format? Contact us
Advertisement - Login to hide

Notes

Basic altitude profile: - Ascent Rate: 2500ft/min - Ascent Speed: 250kts - Cruise Altitude: 35000ft - Cruise Speed: 420kts - Descent Rate: 1500ft/min - Descent Speed: 250kts Options: - Use NATs: yes - Use PACOTS: yes - Use low airways: yes - Use high airways: yes

Route

MDST BIBAS MDSD

ID Type Via Altitude Latitude Longitude Leg Dist Tot Dist Heading (true) Name
O MDST APT - 0 ft / 0 m 19.40609˚ -70.60469˚ - 0 nm - Santiago Cibao Intl
BIBAS FIX - 5,000 ft / 1,524 m 19.23028˚ -70.43611˚ 14 nm 14 nm 138° / 138° -
O MDSD APT - 0 ft / 0 m 18.42966˚ -69.66893˚ 64 nm 79 nm 138° / 138° Las Americas Intl

Altitude Profile

Advertisement - Login to hide

MDST

Details ICAO MDST (STI)
Name Santiago Cibao Intl
Region Dominican Republic
Timezone America/Santo_Domingo (UTC-4.0)
Stats Elevation 563 ft / 172 m (AMSL)
Location 19.406091° -70.604689°
Runways 1
Magnetic Variation 11.171° W

METAR

MDST 121200Z VRB03KT 9999 FEW014 SCT300 17/17 Q1014

Decode

TAF

Not found

Departure Runways

ID Width Length Bearing (true) Bearing (mag) Surface Threshold Offset Overrun Length
11 148 ft / 45 m 8,619 ft / 2,627 m 103.07° 114.24° Asphalt 0 ft / 0 m 200 ft / 61 m
29 148 ft / 45 m 8,619 ft / 2,627 m 283.08° 294.25° Asphalt 0 ft / 0 m 200 ft / 61 m

MDSD

Details ICAO MDSD (SDQ)
Name Las Americas Intl
Region Dominican Republic
Timezone America/Santo_Domingo (UTC-4.0)
Stats Elevation 59 ft / 18 m (AMSL)
Location 18.429662° -69.668925°
Runways 1
Magnetic Variation 11.536° W

METAR

MDSD 121200Z 04004KT 5000 BR FEW016 20/19 Q1013

Decode

TAF

Not found

Destination Runways

ID Width Length Bearing (true) Bearing (mag) Surface Threshold Offset Overrun Length
17 200 ft / 61 m 11,051 ft / 3,368 m 160.78° 172.32° Asphalt 0 ft / 0 m 0 ft / 0 m
35 200 ft / 61 m 11,051 ft / 3,368 m 340.79° 352.33° Asphalt 0 ft / 0 m 0 ft / 0 m

Approach Navaids

Runway Type Ident Frequency Range Bearing (true) Bearing (mag) Slope Elevation
17 Localiser ICDO 108.90 MHz 18 nm / 33 km 160.59° 172.12° - 58 ft / 18 m (AMSL)
17 Glidescope ICDO 108.90 MHz 10 nm / 19 km 160.78° 172.32° 3.00° 35 ft / 11 m (AMSL)
17 DME ICDO 108.90 MHz 18 nm / 33 km - - - 35 ft / 11 m (AMSL)

Popular Alternatives